• Join FlightAware (Why Join?)
  • Login
  • US Flag 
06:13AM EST


 

Airport Tracker/Info


-or-


 

Live Flight TrackerFlight Track Log ✈ ASQ5685 ✈ 28-Apr-2014 ✈ KATL - KIAD

Flight Track Log - Related Links

Times and Time Zones

All times are in EDT time to prevent confusion due to time zone crossing. See the ASQ5685 flight status page for this flight to view local times or setup timezone preferences in your user account.

Time Position Orientation Groundspeed Altitude Reporting Facility
EDT Latitude Longitude Course Direction KTS MPH feet Rate Location/Type
09:57AM 33.6244 -84.4978 53° Northeast 398 458 2,900  Level Atlanta Center
09:58AM 33.5928 -84.5675 241° Southwest 298 343 4,900 2,250 Climbing Atlanta Center
09:59AM 33.5258 -84.5844 192° South 234 269 7,400 2,000 Climbing Atlanta Center
10:00AM 33.4633 -84.5592 161° South 286 329 8,900 1,600 Climbing Atlanta Center
10:01AM 33.4556 -84.4472 95° East 301 346 10,600 1,350 Climbing Atlanta Center
10:02AM 33.9235 -83.7058 53° Northeast  Level FlightAware Approximate
10:02AM 33.4558 -84.3250 90° East 342 394 11,600  Level Atlanta Center
10:03AM 33.9908 -83.5978 53° Northeast  Level FlightAware Approximate
10:03AM 33.5228 -84.2331 49° Northeast 334 384 13,200  Level Atlanta Center
10:04AM 33.6189 -84.1711 28° Northeast 364 419 15,000 1,800 Climbing Atlanta Center
10:05AM 33.7150 -84.1089 28° Northeast 382 440 16,800 1,650 Climbing Atlanta Center
10:06AM 33.7797 -84.0039 53° Northeast 387 445 18,300 1,250 Climbing Atlanta Center
10:07AM 33.8381 -83.8889 59° Northeast 387 445 19,300 1,000 Climbing Atlanta Center
10:08AM 33.8983 -83.7711 58° Northeast 407 468 20,300 1,000 Climbing Atlanta Center
10:09AM 33.9628 -83.6581 55° Northeast 407 468 21,300 1,000 Climbing Atlanta Center
10:10AM 34.0333 -83.5450 53° Northeast 417 480 22,300 1,050 Climbing Atlanta Center
10:11AM 34.1100 -83.4242 53° Northeast 417 480 23,400 950 Climbing Atlanta Center
10:12AM 34.1803 -83.3106 53° Northeast 417 480 24,200 750 Climbing Atlanta Center
10:13AM 34.2525 -83.1969 52° Northeast 417 480 24,900 400 Climbing Atlanta Center
10:14AM 34.3228 -83.0806 54° Northeast 422 486 25,000 50 Climbing Atlanta Center
10:15AM 34.3928 -82.9664 53° Northeast 422 486 25,000  Level Atlanta Center
10:16AM 34.4669 -82.8547 51° Northeast 428 493 25,000 300 Level Atlanta Center
10:17AM 34.5367 -82.7403 53° Northeast 423 487 25,600 550 Climbing Atlanta Center
10:18AM 34.6083 -82.6231 53° Northeast 417 480 26,100 450 Climbing Atlanta Center
10:19AM 34.6739 -82.5208 52° Northeast 422 486 26,500 450 Climbing Atlanta Center
10:20AM 34.7475 -82.4031 53° Northeast 427 491 27,000 500 Climbing Atlanta Center
10:21AM 34.8208 -82.2778 54° Northeast 433 498 27,500 700 Climbing Atlanta Center
10:22AM 34.8922 -82.1622 53° Northeast 439 505 28,400 750 Climbing Atlanta Center
10:23AM 34.9614 -82.0417 55° Northeast 434 499 29,000 300 Climbing Atlanta Center
10:24AM 35.0239 -81.9236 57° Northeast 429 494 29,000  Level Atlanta Center
10:25AM 35.0908 -81.8050 55° Northeast 423 487 29,000  Level Atlanta Center
10:26AM 35.1492 -81.6892 58° Northeast 413 475 29,000  Level Atlanta Center
10:27AM 35.2094 -81.5756 57° Northeast 408 470 29,000  Level Atlanta Center
10:28AM 35.2697 -81.4592 58° Northeast 402 463 29,000  Level Atlanta Center
10:29AM 35.3278 -81.3506 57° Northeast 391 450 29,000  Level Atlanta Center
10:30AM 35.3858 -81.2367 58° Northeast 391 450 29,000  Level Atlanta Center
10:31AM 35.4536 -81.1067 57° Northeast 400 460 29,000  Level Atlanta Center
10:32AM 35.5158 -80.9947 56° Northeast 400 460 29,000  Level Atlanta Center
10:33AM 35.5756 -80.8828 57° Northeast 395 455 29,000  Level Atlanta Center
10:34AM 35.6350 -80.7681 57° Northeast 395 455 29,000  Level Atlanta Center
10:35AM 35.6944 -80.6533 57° Northeast 395 455 29,000  Level Atlanta Center
10:36AM 35.7539 -80.5408 57° Northeast 395 455 29,000  Level Atlanta Center
10:38AM 35.8617 -80.3336 57° Northeast 397 457 29,000  Level Washington Center
10:39AM 35.9206 -80.2164 58° Northeast 397 457 29,000  Level Washington Center
10:40AM 35.9792 -80.1019 58° Northeast 397 457 29,000  Level Washington Center
10:41AM 36.0350 -80.0022 55° Northeast 397 457 29,000  Level Washington Center
10:42AM 36.0978 -79.8875 56° Northeast 397 457 29,000  Level Washington Center
10:43AM 36.1622 -79.7753 55° Northeast 397 457 29,000  Level Washington Center
10:44AM 36.2314 -79.6478 56° Northeast 403 464 29,000  Level Washington Center
10:45AM 36.2889 -79.5450 55° Northeast 403 464 29,000  Level Washington Center
10:46AM 36.3597 -79.4272 53° Northeast 403 464 29,000  Level Washington Center
10:47AM 36.4131 -79.3217 58° Northeast 398 458 29,000  Level Washington Center
10:48AM 36.4792 -79.2083 54° Northeast 398 458 29,000  Level Washington Center
10:49AM 36.5517 -79.0850 54° Northeast 403 464 29,000 -814 Level Washington Center
10:50AM 36.6156 -78.9664 56° Northeast 403 464 27,400 -1,627 Descending Washington Center
10:51AM 36.6772 -78.8472 57° Northeast 403 464 25,800 -1,180 Descending Washington Center
10:52AM 36.7319 -78.7486 55° Northeast 397 457 25,000 -397 Descending Washington Center
10:53AM 36.7933 -78.6422 54° Northeast 387 445 25,000  Level Washington Center
10:54AM 36.8647 -78.5411 49° Northeast 387 445 25,000  Level Washington Center
10:55AM 36.9608 -78.4408 40° Northeast 396 456 25,000  Level Washington Center
10:56AM 37.0508 -78.3478 40° Northeast 409 471 25,000  Level Washington Center
10:57AM 37.1528 -78.2681 32° Northeast 422 486 25,000  Level Washington Center
10:58AM 37.2589 -78.1831 33° Northeast 433 498 25,000 -102 Level Washington Center
10:59AM 37.3564 -78.1053 32° Northeast 433 498 24,800 -750 Descending Washington Center
11:00AM 37.4603 -78.0250 32° Northeast 428 493 23,500 -1,289 Descending Washington Center
11:01AM 37.5578 -77.9469 32° Northeast 422 486 22,200 -738 Descending Washington Center
11:02AM 37.6575 -77.8661 33° Northeast 422 486 22,000 -1,160 Descending Washington Center
11:03AM 37.7611 -77.7878 31° Northeast 422 486 19,900 -2,186 Descending Washington Center
11:04AM 37.8542 -77.7089 34° Northeast 422 486 17,700 -2,182 Descending Washington Center
11:05AM 37.9472 -77.6353 32° Northeast 412 474 15,500 -2,033 Descending Washington Center
11:06AM 38.0339 -77.5689 31° Northeast 385 443 13,600 -1,884 Descending Washington Center
11:07AM 38.1142 -77.5025 33° Northeast 355 409 11,700 -1,765 Descending Washington Center
11:08AM 38.1881 -77.4436 32° Northeast 329 379 10,100 -958 Descending Washington Center
11:09AM 38.2639 -77.4031 23° Northeast 305 351 9,800 -541 Descending Washington Center
11:10AM 38.3453 -77.3944 North 293 337 9,000 -645 Descending Washington Center
11:11AM 38.4247 -77.3858 North 287 330 8,500 -1,119 Descending Washington Center
11:12AM 38.5019 -77.3772 North 282 325 6,800 -1,664 Descending Washington Center
11:13AM 38.5772 -77.3683 North 276 318 5,200 -934 Descending Washington Center
11:14AM 38.6544 -77.3622 North 276 318 4,900 -522 Descending Washington Center
11:15AM 38.7000 -77.3667 356° North 272 313 4,400 -635 Descending Potomac TRACON
11:16AM 38.7667 -77.3500 11° North 274 315 4,000 -200 Descending Potomac TRACON
11:17AM 38.8500 -77.3500 360° North 266 306 4,000  Level Potomac TRACON
11:18AM 38.9167 -77.3500 360° North 264 304 4,000 -99 Level Potomac TRACON
11:19AM 39.0000 -77.3500 360° North 271 312 3,800 -574 Descending Potomac TRACON
11:20AM 39.0667 -77.3500 360° North 258 297 2,900 -1,000 Descending Potomac TRACON
11:21AM 39.1167 -77.3833 333° Northwest 250 288 1,900 -446 Descending Potomac TRACON
11:22AM 39.0833 -77.4333 229° Southwest 218 251 2,000  Climbing Potomac TRACON
11:23AM 39.0333 -77.4333 180° South 171 197 1,900 -474 Descending Potomac TRACON
11:24AM 39.0000 -77.4333 180° South 145 167 1,100 -889 Descending Potomac TRACON
11:26AM 38.9474 -77.4599 195° South  Level Estimated
11:33AM 38.9474 -77.4599 195° South  Level Estimated
11:34AM 38.9474 -77.4599 195° South  Level Estimated